createdAt,value
2018-04-14T00:01:14.622Z,88.40
2018-04-14T00:03:42.128Z,88.50
2018-04-14T00:06:10.200Z,88.60
2018-04-14T00:08:38.281Z,89.40
2018-04-14T00:11:07.002Z,89.80
2018-04-14T00:13:34.625Z,89.40
2018-04-14T00:16:02.590Z,89.70
2018-04-14T00:18:30.478Z,89.40
2018-04-14T00:21:06.430Z,89.80
2018-04-14T00:23:34.590Z,89.60
2018-04-14T00:26:02.467Z,89.30
2018-04-14T00:28:30.028Z,89.40
2018-04-14T00:30:59.729Z,89.60
2018-04-14T00:33:27.653Z,89.20
2018-04-14T00:35:55.776Z,89.10
2018-04-14T00:38:23.542Z,88.90
2018-04-14T00:40:51.607Z,89.50
2018-04-14T00:43:19.891Z,89.50
2018-04-14T00:45:51.234Z,89.30
2018-04-14T00:48:18.902Z,89.60
2018-04-14T00:50:46.557Z,89.60
2018-04-14T00:56:19.467Z,89.60
2018-04-14T00:58:47.028Z,89.20
2018-04-14T01:01:15.205Z,89.20
2018-04-14T01:03:43.194Z,89.10
2018-04-14T01:06:10.755Z,89.00
2018-04-14T01:08:38.720Z,89.00
2018-04-14T01:11:08.304Z,89.20
2018-04-14T01:13:36.278Z,89.30
2018-04-14T01:16:04.394Z,89.80
2018-04-14T01:18:32.112Z,90.00
2018-04-14T01:21:04.893Z,89.90
2018-04-14T01:23:33.068Z,89.50
2018-04-14T01:26:00.774Z,89.00
2018-04-14T01:28:28.718Z,89.20
2018-04-14T01:30:56.250Z,89.70
2018-04-14T01:33:24.134Z,89.80
2018-04-14T01:35:51.791Z,89.80
2018-04-14T01:38:19.795Z,89.50
2018-04-14T01:40:47.385Z,89.70
2018-04-14T01:43:14.982Z,90.00
2018-04-14T01:45:42.954Z,90.40
2018-04-14T01:48:10.921Z,90.60
2018-04-14T01:50:38.997Z,90.40
2018-04-14T01:53:07.723Z,90.30
2018-04-14T01:55:35.651Z,90.30
2018-04-14T01:58:03.722Z,89.80
2018-04-14T02:00:31.590Z,89.80
2018-04-14T02:03:00.602Z,90.10
2018-04-14T02:05:28.253Z,90.20
2018-04-14T02:07:55.976Z,90.10
2018-04-14T02:10:23.467Z,89.70
2018-04-14T02:12:53.802Z,89.60
2018-04-14T02:15:21.762Z,89.70
2018-04-14T02:17:49.433Z,89.30
2018-04-14T02:20:17.095Z,88.90
2018-04-14T02:22:45.063Z,88.90
2018-04-14T02:25:13.029Z,89.40
2018-04-14T02:27:40.910Z,89.40
2018-04-14T02:30:08.465Z,89.60
2018-04-14T02:32:36.444Z,89.30
2018-04-14T02:35:04.209Z,89.40
2018-04-14T02:37:32.187Z,89.40
2018-04-14T02:39:59.644Z,89.40
2018-04-14T02:42:27.088Z,89.50
2018-04-14T02:44:55.213Z,89.30
2018-04-14T02:47:22.623Z,89.10
2018-04-14T02:49:50.375Z,89.10
2018-04-14T02:52:18.348Z,88.90
2018-04-14T02:54:46.008Z,88.90
2018-04-14T02:57:15.728Z,89.30
2018-04-14T02:59:43.382Z,89.20
2018-04-14T03:02:11.353Z,89.30
2018-04-14T03:04:39.317Z,89.10
2018-04-14T03:07:07.178Z,89.00
2018-04-14T03:09:35.151Z,88.70
2018-04-14T03:12:03.123Z,88.80
2018-04-14T03:14:30.680Z,89.00
2018-04-14T03:16:58.564Z,89.40
2018-04-14T03:19:27.130Z,89.00
2018-04-14T03:21:55.304Z,89.00
2018-04-14T03:24:23.274Z,88.80
2018-04-14T03:26:50.731Z,88.60
2018-04-14T03:29:18.608Z,89.00
2018-04-14T03:31:46.157Z,88.70
2018-04-14T03:34:14.127Z,89.20
2018-04-14T03:36:42.097Z,88.80
2018-04-14T03:39:09.968Z,89.30
2018-04-14T03:41:37.440Z,88.80
2018-04-14T03:44:04.982Z,88.60
2018-04-14T03:46:33.498Z,88.70
2018-04-14T03:49:01.024Z,88.50
2018-04-14T03:51:28.601Z,88.40
2018-04-14T03:54:00.804Z,88.50
2018-04-14T03:56:28.430Z,88.30
2018-04-14T03:58:55.873Z,88.30
2018-04-14T04:01:23.846Z,88.20
2018-04-14T04:03:51.921Z,87.90
2018-04-14T04:06:19.782Z,88.00
2018-04-14T04:08:47.756Z,88.00
2018-04-14T04:11:15.728Z,88.00
2018-04-14T04:13:43.486Z,88.10
2018-04-14T04:16:14.630Z,88.20
2018-04-14T04:18:54.273Z,88.20
2018-04-14T04:21:33.937Z,88.20
2018-04-14T04:24:13.766Z,88.30
2018-04-14T04:26:44.816Z,88.20
2018-04-14T04:29:13.194Z,88.20
2018-04-14T04:31:41.360Z,87.90
2018-04-14T04:34:09.332Z,88.20
2018-04-14T04:36:37.196Z,88.60
2018-04-14T04:39:05.392Z,88.50
2018-04-14T04:41:32.858Z,88.80
2018-04-14T04:44:00.398Z,88.60
2018-04-14T04:46:28.461Z,88.80
2018-04-14T04:48:56.390Z,88.80
2018-04-14T04:51:23.800Z,88.90
2018-04-14T04:53:51.682Z,89.00
2018-04-14T04:56:19.426Z,89.20
2018-04-14T04:58:47.388Z,88.80
2018-04-14T05:01:16.281Z,88.60
2018-04-14T05:03:44.577Z,88.50
2018-04-14T05:06:12.229Z,88.70
2018-04-14T05:08:40.188Z,88.90
2018-04-14T05:11:08.166Z,88.90
2018-04-14T05:13:36.340Z,89.10
2018-04-14T05:16:04.508Z,89.30
2018-04-14T05:18:32.661Z,89.00
2018-04-14T05:21:00.240Z,89.00
2018-04-14T05:23:28.315Z,89.10
2018-04-14T05:25:59.456Z,89.30
2018-04-14T05:28:27.432Z,89.30
2018-04-14T05:30:55.600Z,89.50
2018-04-14T05:33:23.502Z,89.40
2018-04-14T11:29:16.345Z,89.40
2018-04-14T11:31:44.427Z,89.20
2018-04-14T11:34:15.262Z,88.60
2018-04-14T11:36:46.655Z,89.10
2018-04-14T11:39:24.334Z,88.90
2018-04-14T11:41:55.630Z,88.50
2018-04-14T11:44:27.126Z,88.60
2018-04-14T11:47:00.211Z,89.00
2018-04-14T11:49:31.451Z,88.30
2018-04-14T11:52:05.552Z,88.10
2018-04-14T11:54:37.045Z,88.30
2018-04-14T11:57:10.359Z,88.30
2018-04-14T11:59:51.714Z,88.00
2018-04-14T12:02:34.089Z,88.60
2018-04-14T12:05:05.270Z,88.70
2018-04-14T12:07:37.084Z,88.60
2018-04-14T12:10:09.160Z,88.10
2018-04-14T12:12:40.074Z,88.30
2018-04-14T12:15:17.604Z,88.30
2018-04-14T12:17:48.836Z,88.30
2018-04-14T12:20:19.767Z,88.00
2018-04-14T12:22:50.780Z,87.70
2018-04-14T12:25:23.328Z,87.40
2018-04-14T12:27:55.086Z,87.80
2018-04-14T12:30:26.145Z,87.90
2018-04-14T12:32:57.894Z,87.90
2018-04-14T12:35:28.737Z,89.10
2018-04-14T12:38:03.563Z,89.90
2018-04-14T12:40:39.511Z,89.70
2018-04-14T12:43:10.636Z,88.90
2018-04-14T12:45:42.232Z,89.30
2018-04-14T12:48:20.868Z,89.50
2018-04-14T12:50:52.111Z,88.90
2018-04-14T12:53:23.584Z,88.20
2018-04-14T12:55:55.299Z,88.60
2018-04-14T12:58:26.411Z,88.60
2018-04-14T13:00:57.540Z,88.30
2018-04-14T13:03:30.118Z,87.90
2018-04-14T13:06:01.581Z,87.50
2018-04-14T13:08:33.932Z,87.60
2018-04-14T13:11:05.193Z,87.50
2018-04-14T13:13:36.309Z,87.70
2018-04-14T13:16:07.526Z,87.80
2018-04-14T13:18:44.787Z,87.70
2018-04-14T13:21:15.619Z,87.60
2018-04-14T13:23:47.291Z,87.00
2018-04-14T13:26:15.238Z,87.50
2018-04-14T13:28:42.922Z,87.20
2018-04-14T13:31:10.551Z,86.60
2018-04-14T13:33:39.547Z,86.30
2018-04-14T13:36:07.446Z,86.50
2018-04-14T13:38:35.429Z,86.30
2018-04-14T13:41:02.970Z,86.60
2018-04-14T13:43:30.504Z,86.90
2018-04-14T13:45:58.270Z,86.50
2018-04-14T13:48:26.142Z,86.60
2018-04-14T13:50:53.695Z,86.60
2018-04-14T13:53:21.356Z,86.10
2018-04-14T13:55:49.325Z,85.90
2018-04-14T13:58:17.412Z,86.00
2018-04-14T14:00:48.405Z,86.20
2018-04-14T14:03:16.203Z,86.20
2018-04-14T14:05:44.207Z,85.90
2018-04-14T14:08:11.836Z,86.20
2018-04-14T14:10:39.910Z,85.70
2018-04-14T14:13:07.369Z,85.50
2018-04-14T14:15:34.953Z,85.80
2018-04-14T14:18:02.529Z,85.80
2018-04-14T14:20:30.150Z,85.80
2018-04-14T14:22:57.811Z,85.50
2018-04-14T14:25:25.830Z,85.30
2018-04-14T14:27:53.378Z,84.90
2018-04-14T14:30:21.129Z,85.10
2018-04-14T14:32:48.775Z,85.10
2018-04-14T14:35:16.536Z,85.10
2018-04-14T14:37:46.040Z,85.60
2018-04-14T14:40:13.702Z,84.90
2018-04-14T14:42:42.435Z,85.30
2018-04-14T14:45:09.997Z,85.50
2018-04-14T14:47:38.497Z,84.90
2018-04-14T14:50:11.876Z,85.00
2018-04-14T14:52:39.924Z,84.80
2018-04-14T14:55:07.499Z,84.70
2018-04-14T14:57:35.326Z,85.10
2018-04-14T15:00:03.402Z,85.00
2018-04-14T15:02:31.173Z,84.60
2018-04-14T15:04:59.082Z,84.50
2018-04-14T15:07:26.800Z,84.50
2018-04-14T15:09:54.493Z,84.40
2018-04-14T15:12:22.122Z,84.60
2018-04-14T15:14:50.015Z,84.60
2018-04-14T15:17:17.706Z,84.30
2018-04-14T15:19:45.316Z,84.10
2018-04-14T15:22:13.052Z,84.20
2018-04-14T15:24:46.212Z,84.30
2018-04-14T15:27:13.804Z,83.90
2018-04-14T15:29:41.390Z,84.10
2018-04-14T15:32:09.198Z,84.10
2018-04-14T15:34:37.073Z,84.10
2018-04-14T15:37:04.689Z,84.20
2018-04-14T15:39:32.447Z,84.20
2018-04-14T15:42:03.900Z,83.90
2018-04-14T15:44:33.462Z,83.90
2018-04-14T15:47:03.116Z,83.90
2018-04-14T15:49:34.372Z,83.90
2018-04-14T15:52:02.031Z,84.10
2018-04-14T15:54:30.710Z,84.00
2018-04-14T15:56:58.684Z,83.70
2018-04-14T15:59:28.388Z,84.00
2018-04-14T16:01:56.258Z,83.60
2018-04-14T16:04:32.317Z,83.70
2018-04-14T16:06:59.793Z,83.70
2018-04-14T16:09:27.442Z,83.70
2018-04-14T16:11:55.406Z,83.60
2018-04-14T16:14:38.221Z,83.80
2018-04-14T16:17:07.159Z,83.80
2018-04-14T16:19:38.216Z,83.30
2018-04-14T16:22:06.342Z,83.40
2018-04-14T16:24:33.817Z,83.30
2018-04-14T16:27:01.348Z,83.50
2018-04-14T16:29:29.419Z,83.50
2018-04-14T16:31:57.602Z,83.30
2018-04-14T16:34:25.259Z,83.40
2018-04-14T16:36:53.226Z,83.40
2018-04-14T16:39:21.203Z,83.30
2018-04-14T16:41:49.167Z,83.30
2018-04-14T16:44:17.051Z,83.30
2018-04-14T16:46:44.806Z,83.30
2018-04-14T16:49:12.573Z,83.30
2018-04-14T16:51:39.962Z,83.20
2018-04-14T16:54:07.570Z,83.20
2018-04-14T16:56:35.542Z,83.10
2018-04-14T16:59:03.204Z,83.10
2018-04-14T17:01:31.277Z,83.10
2018-04-14T17:04:00.067Z,83.20
2018-04-14T17:06:27.725Z,83.20
2018-04-14T17:08:55.389Z,83.00
2018-04-14T17:11:23.467Z,83.10
2018-04-14T17:13:51.786Z,83.10
2018-04-14T17:16:21.491Z,83.00
2018-04-14T17:18:49.213Z,83.10
2018-04-14T17:21:16.886Z,83.10
2018-04-14T17:23:44.851Z,83.00
2018-04-14T17:26:12.511Z,82.80
2018-04-14T17:28:40.371Z,82.90
2018-04-14T17:31:08.564Z,82.80
2018-04-14T17:33:36.210Z,82.80
2018-04-14T17:36:08.072Z,82.70
2018-04-14T17:38:37.264Z,82.60
2018-04-14T17:41:09.437Z,82.60
2018-04-14T17:43:37.408Z,82.70
2018-04-14T17:46:05.074Z,82.70
2018-04-14T17:48:33.151Z,82.60
2018-04-14T17:51:01.017Z,82.50
2018-04-14T17:53:28.674Z,82.60
2018-04-14T17:56:01.146Z,82.50
2018-04-14T17:58:30.051Z,82.60
2018-04-14T18:00:57.804Z,82.60
2018-04-14T18:03:25.465Z,82.60
2018-04-14T18:05:54.194Z,82.50
2018-04-14T18:08:22.226Z,82.70
2018-04-14T18:10:50.604Z,82.70
2018-04-14T18:13:18.266Z,82.70
2018-04-14T18:15:46.448Z,82.70
2018-04-14T18:18:14.255Z,82.50
2018-04-14T18:20:42.176Z,82.50
2018-04-14T18:23:10.433Z,82.50
2018-04-14T18:25:39.293Z,82.70
2018-04-14T18:28:08.440Z,82.80
2018-04-14T18:30:36.310Z,82.70
2018-04-14T18:33:18.575Z,82.70
2018-04-14T18:35:46.281Z,82.50
2018-04-14T18:38:14.147Z,82.50
2018-04-14T18:40:42.190Z,82.50
2018-04-14T18:43:12.519Z,82.70
2018-04-14T18:45:41.653Z,82.70
2018-04-14T18:48:09.814Z,82.70
2018-04-14T18:50:37.685Z,82.60
2018-04-14T18:53:05.337Z,82.70
2018-04-14T18:55:33.235Z,82.70
2018-04-14T18:58:00.868Z,82.60
2018-04-14T19:00:29.824Z,82.80
2018-04-14T19:02:57.680Z,82.70
2018-04-14T19:05:25.428Z,82.70
2018-04-14T19:07:53.871Z,82.60
2018-04-14T19:10:21.676Z,82.70
2018-04-14T19:12:51.599Z,82.70
2018-04-14T19:15:19.839Z,82.60
2018-04-14T19:17:48.450Z,82.60
2018-04-14T19:20:19.825Z,82.60
2018-04-14T19:22:51.941Z,82.70
2018-04-14T19:25:23.856Z,82.70
2018-04-14T19:27:51.456Z,82.60
2018-04-14T19:30:25.264Z,82.50
2018-04-14T19:32:53.852Z,82.50
2018-04-14T19:35:21.509Z,82.50
2018-04-14T19:37:53.557Z,82.50
2018-04-14T19:40:22.054Z,82.50
2018-04-14T19:42:50.544Z,82.50
2018-04-14T19:45:18.197Z,82.50
2018-04-14T19:47:46.170Z,82.60
2018-04-14T19:50:14.342Z,82.60
2018-04-14T19:52:41.909Z,82.50
2018-04-14T19:55:09.565Z,82.40
2018-04-14T19:57:37.543Z,82.30
2018-04-14T20:00:05.198Z,82.40
2018-04-14T20:02:33.473Z,82.40
2018-04-14T20:05:02.020Z,82.40
2018-04-14T20:07:29.547Z,82.60
2018-04-14T20:09:57.210Z,82.70
2018-04-14T20:12:24.840Z,82.60
2018-04-14T20:14:53.118Z,82.50
2018-04-14T20:17:21.098Z,82.60
2018-04-14T20:19:48.902Z,82.60
2018-04-14T20:22:16.578Z,82.50
2018-04-14T20:24:44.696Z,82.50
2018-04-14T20:27:12.463Z,82.50
2018-04-14T20:29:40.218Z,82.40
2018-04-14T20:32:08.299Z,82.40
2018-04-14T20:34:36.055Z,82.60
2018-04-14T20:37:04.233Z,82.60
2018-04-14T20:39:31.996Z,82.60
2018-04-14T20:41:59.869Z,82.60
2018-04-14T20:44:27.720Z,82.50
2018-04-14T20:46:55.803Z,82.40
2018-04-14T20:49:24.104Z,82.40
2018-04-14T20:51:51.912Z,82.60
2018-04-14T20:54:20.782Z,82.50
2018-04-14T20:57:02.227Z,82.40
2018-04-14T20:59:30.088Z,82.40
2018-04-14T21:01:57.852Z,82.50
2018-04-14T21:04:26.343Z,82.50
2018-04-14T21:06:54.318Z,82.50
2018-04-14T21:09:21.967Z,82.30
2018-04-14T21:11:52.906Z,82.30
2018-04-14T21:14:21.386Z,82.50
2018-04-14T21:16:49.265Z,82.30
2018-04-14T21:19:18.316Z,82.30
2018-04-14T21:21:46.200Z,82.20
2018-04-14T21:24:13.886Z,82.40
2018-04-14T21:26:41.735Z,82.50
2018-04-14T21:29:09.409Z,82.50
2018-04-14T21:31:37.542Z,82.50
2018-04-14T21:34:05.247Z,82.50
2018-04-14T21:36:33.318Z,82.60
2018-04-14T21:39:01.287Z,82.60
2018-04-14T21:41:29.463Z,82.70
2018-04-14T21:43:57.431Z,82.70
2018-04-14T21:46:25.605Z,82.70
2018-04-14T21:48:54.290Z,82.80
2018-04-14T21:51:22.237Z,82.80
2018-04-14T21:53:50.478Z,82.80
2018-04-14T21:56:18.407Z,82.70
2018-04-14T21:58:46.377Z,82.60
2018-04-14T22:01:15.341Z,82.60
2018-04-14T22:03:42.928Z,82.60
2018-04-14T22:06:12.882Z,82.70
2018-04-14T22:08:48.191Z,82.90
2018-04-14T22:11:15.854Z,82.90
2018-04-14T22:13:43.886Z,82.70
2018-04-14T22:16:11.900Z,83.10
2018-04-14T22:18:44.070Z,82.90
2018-04-14T22:21:12.038Z,83.00
2018-04-14T22:23:40.204Z,83.00
2018-04-14T22:26:08.305Z,83.00
2018-04-14T22:28:36.248Z,82.70
2018-04-14T22:31:04.413Z,82.60
2018-04-14T22:33:32.390Z,82.70
2018-04-14T22:36:00.568Z,82.90
2018-04-14T22:38:28.124Z,82.90
2018-04-14T22:40:55.795Z,83.00
2018-04-14T22:43:28.682Z,83.00
2018-04-14T22:45:56.748Z,83.00
2018-04-14T22:48:24.304Z,82.90
2018-04-14T22:50:52.105Z,82.90
2018-04-14T22:53:19.833Z,83.00
2018-04-14T22:55:47.541Z,83.00
2018-04-14T22:58:15.988Z,83.00
2018-04-14T23:00:43.529Z,83.10
2018-04-14T23:03:11.436Z,83.10
2018-04-14T23:05:43.787Z,82.90
2018-04-14T23:08:11.670Z,83.20
2018-04-14T23:10:39.206Z,83.00
2018-04-14T23:13:06.773Z,83.10
2018-04-14T23:15:34.745Z,82.90
2018-04-14T23:18:02.713Z,82.90
2018-04-14T23:20:31.650Z,83.10
2018-04-14T23:23:00.199Z,83.10
2018-04-14T23:25:27.740Z,83.10
2018-04-14T23:27:55.231Z,83.20
2018-04-14T23:30:22.869Z,83.00
2018-04-14T23:32:51.683Z,83.10
2018-04-14T23:35:19.207Z,83.00
2018-04-14T23:37:47.178Z,83.10
2018-04-14T23:40:14.841Z,83.10
2018-04-14T23:42:42.407Z,83.00
2018-04-14T23:45:10.475Z,83.00
2018-04-14T23:47:38.450Z,83.00
2018-04-14T23:50:06.408Z,83.00
2018-04-14T23:52:34.176Z,83.00
2018-04-14T23:55:02.251Z,83.20
2018-04-14T23:57:30.216Z,83.20
2018-04-14T23:59:58.185Z,83.20
